createdAt,value
2022-11-28T00:01:41.482Z,100159.78
2022-11-28T00:04:10.569Z,100159.91
2022-11-28T00:06:41.274Z,100163.38
2022-11-28T00:09:09.778Z,100163.09
2022-11-28T00:11:40.732Z,100159.09
2022-11-28T00:14:09.440Z,100164.56
2022-11-28T00:16:38.085Z,100166.81
2022-11-28T00:19:06.242Z,100164.91
2022-11-28T00:21:34.871Z,100162.72
2022-11-28T00:24:03.481Z,100159.22
2022-11-28T00:26:34.860Z,100163.97
2022-11-28T00:29:04.440Z,100160.81
2022-11-28T00:31:36.017Z,100159.22
2022-11-28T00:34:04.465Z,100158.38
2022-11-28T00:36:32.400Z,100158.03
2022-11-28T00:39:00.478Z,100158.13
2022-11-28T00:41:31.312Z,100158.87
2022-11-28T00:43:59.293Z,100161.81
2022-11-28T00:46:27.942Z,100160.91
2022-11-28T00:48:58.219Z,100168.06
2022-11-28T00:51:29.212Z,100162.53
2022-11-28T00:53:59.080Z,100161.09
2022-11-28T00:56:33.703Z,100169.47
2022-11-28T00:59:02.242Z,100157.00
2022-11-28T01:01:32.821Z,100167.69
2022-11-28T01:04:02.881Z,100163.09
2022-11-28T01:06:34.333Z,100160.47
2022-11-28T01:09:06.077Z,100160.97
2022-11-28T01:11:34.567Z,100158.81
2022-11-28T01:14:02.799Z,100161.88
2022-11-28T01:16:31.211Z,100156.94
2022-11-28T01:18:59.601Z,100148.78
2022-11-28T01:21:28.091Z,100143.56
2022-11-28T01:23:56.254Z,100149.78
2022-11-28T01:26:27.831Z,100154.22
2022-11-28T01:28:56.340Z,100149.75
2022-11-28T01:31:26.705Z,100147.75
2022-11-28T01:33:54.911Z,100151.03
2022-11-28T01:36:23.420Z,100150.47
2022-11-28T01:38:52.249Z,100142.72
2022-11-28T01:41:23.241Z,100142.25
2022-11-28T01:44:00.239Z,100133.28
2022-11-28T01:46:29.667Z,100132.25
2022-11-28T01:49:02.111Z,100122.50
2022-11-28T01:51:30.631Z,100119.94
2022-11-28T01:53:59.430Z,100121.31
2022-11-28T01:56:29.589Z,100116.84
2022-11-28T01:59:03.309Z,100113.34
2022-11-28T02:01:31.940Z,100105.81
2022-11-28T02:04:00.589Z,100107.28
2022-11-28T02:06:28.740Z,100107.12
2022-11-28T02:08:56.804Z,100101.94
2022-11-28T02:11:54.311Z,100098.06
2022-11-28T02:14:59.561Z,100104.16
2022-11-28T02:17:38.343Z,100101.91
2022-11-28T02:20:31.911Z,100096.38
2022-11-28T02:23:09.319Z,100094.78
2022-11-28T02:25:55.870Z,100091.75
2022-11-28T02:28:32.991Z,100088.78
2022-11-28T02:31:25.999Z,100089.44
2022-11-28T02:33:57.962Z,100099.03
2022-11-28T02:37:04.383Z,100093.75
2022-11-28T02:39:39.270Z,100094.63
2022-11-28T02:42:29.167Z,100089.16
2022-11-28T02:45:36.039Z,100087.47
2022-11-28T02:48:09.152Z,100080.09
2022-11-28T02:51:00.649Z,100080.81
2022-11-28T02:53:30.961Z,100080.87
2022-11-28T02:55:59.950Z,100079.31
2022-11-28T02:58:28.211Z,100071.00
2022-11-28T03:00:56.690Z,100077.16
2022-11-28T03:03:29.129Z,100071.37
2022-11-28T03:06:30.840Z,100065.09
2022-11-28T03:09:17.768Z,100067.50
2022-11-28T03:11:58.193Z,100067.81
2022-11-28T03:14:35.270Z,100066.56
2022-11-28T03:17:20.281Z,100064.72
2022-11-28T03:20:04.951Z,100065.97
2022-11-28T03:22:49.190Z,100062.53
2022-11-28T03:25:41.842Z,100055.72
2022-11-28T03:28:19.323Z,100049.44
2022-11-28T03:31:25.268Z,100044.53
2022-11-28T03:33:58.492Z,100038.56
2022-11-28T03:36:35.869Z,100042.69
2022-11-28T03:39:12.812Z,100035.81
2022-11-28T03:41:48.440Z,100022.28
2022-11-28T03:44:23.829Z,100023.16
2022-11-28T03:46:52.237Z,100019.91
2022-11-28T03:49:39.919Z,100017.28
2022-11-28T03:52:27.910Z,100019.97
2022-11-28T03:55:12.370Z,100015.34
2022-11-28T03:57:45.662Z,100009.69
2022-11-28T04:00:14.731Z,100001.38
2022-11-28T04:02:57.609Z,100003.22
2022-11-28T04:05:40.910Z,99999.53
2022-11-28T04:08:29.666Z,99993.69
2022-11-28T04:11:21.349Z,99993.94
2022-11-28T04:13:57.542Z,99992.03
2022-11-28T04:16:35.627Z,99994.28
2022-11-28T04:19:16.521Z,99993.25
2022-11-28T04:21:50.303Z,99988.22
2022-11-28T04:24:22.740Z,99993.06
2022-11-28T04:27:03.310Z,99982.31
2022-11-28T04:29:35.089Z,99991.81
2022-11-28T04:32:04.639Z,99989.09
2022-11-28T04:34:35.425Z,99991.63
2022-11-28T04:37:09.635Z,99992.22
2022-11-28T04:39:39.070Z,99993.06
2022-11-28T04:42:14.039Z,99990.28
2022-11-28T04:44:55.240Z,99985.66
2022-11-28T04:47:24.222Z,99989.44
2022-11-28T04:49:53.700Z,99985.25
2022-11-28T04:52:29.730Z,99977.13
2022-11-28T04:55:25.924Z,99983.28
2022-11-28T04:58:00.652Z,99973.38
2022-11-28T05:00:29.036Z,99980.91
2022-11-28T05:02:57.294Z,99976.94
2022-11-28T05:05:26.591Z,99983.31
2022-11-28T05:07:54.915Z,99979.84
2022-11-28T05:10:22.851Z,99979.66
2022-11-28T05:12:50.823Z,99983.38
2022-11-28T05:15:19.397Z,99984.53
2022-11-28T05:17:47.290Z,99985.69
2022-11-28T05:20:15.455Z,99988.63
2022-11-28T05:22:43.791Z,99988.47
2022-11-28T05:25:11.768Z,99986.56
2022-11-28T05:27:39.924Z,99990.34
2022-11-28T05:30:13.050Z,99989.03
2022-11-28T05:32:41.425Z,99997.38
2022-11-28T05:35:09.802Z,100002.25
2022-11-28T05:37:38.071Z,100001.00
2022-11-28T05:40:06.780Z,100008.56
2022-11-28T05:42:36.040Z,100005.59
2022-11-28T05:45:05.010Z,100010.81
2022-11-28T05:47:33.745Z,100015.62
2022-11-28T05:50:02.028Z,100010.03
2022-11-28T05:52:32.428Z,100018.03
2022-11-28T05:55:00.620Z,100004.56
2022-11-28T05:57:30.200Z,100007.59
2022-11-28T05:59:58.209Z,100010.78
2022-11-28T06:02:26.338Z,100010.09
2022-11-28T06:04:54.749Z,100004.94
2022-11-28T06:07:22.888Z,100015.12
2022-11-28T06:09:50.931Z,100012.28
2022-11-28T06:12:19.241Z,100014.47
2022-11-28T06:14:47.306Z,100017.88
2022-11-28T06:17:15.336Z,100016.87
2022-11-28T06:19:43.680Z,100022.72
2022-11-28T06:22:11.848Z,100021.31
2022-11-28T06:24:39.884Z,100016.53
2022-11-28T06:27:08.306Z,100013.31
2022-11-28T06:29:36.216Z,100012.59
2022-11-28T06:32:04.277Z,100014.75
2022-11-28T06:34:32.800Z,100015.66
2022-11-28T06:37:01.121Z,100013.47
2022-11-28T06:39:29.140Z,100011.84
2022-11-28T06:41:57.442Z,100011.03
2022-11-28T06:44:25.454Z,100008.72
2022-11-28T06:46:54.954Z,100005.00
2022-11-28T06:49:23.332Z,100012.69
2022-11-28T06:51:51.252Z,100010.06
2022-11-28T06:54:19.273Z,100014.50
2022-11-28T06:56:47.588Z,100013.56
2022-11-28T06:59:15.602Z,100026.09
2022-11-28T07:01:43.678Z,100025.28
2022-11-28T07:04:12.091Z,100016.28
2022-11-28T07:06:40.171Z,100020.09
2022-11-28T07:09:08.320Z,100016.97
2022-11-28T07:11:36.769Z,100019.59
2022-11-28T07:14:04.932Z,100019.75
2022-11-28T07:16:34.033Z,100012.84
2022-11-28T07:19:03.041Z,100024.47
2022-11-28T07:21:31.228Z,100019.13
2022-11-28T07:24:00.095Z,100021.84
2022-11-28T07:26:28.514Z,100028.69
2022-11-28T07:28:58.518Z,100031.28
2022-11-28T07:31:29.757Z,100032.09
2022-11-28T07:33:58.229Z,100028.53
2022-11-28T07:36:28.176Z,100015.88
2022-11-28T07:38:58.995Z,100019.41
2022-11-28T07:41:28.338Z,100012.28
2022-11-28T07:43:59.919Z,100017.81
2022-11-28T07:46:29.566Z,100014.16
2022-11-28T07:48:57.668Z,100007.53
2022-11-28T07:51:28.741Z,100008.09
2022-11-28T07:53:57.972Z,100000.34
2022-11-28T07:56:39.551Z,99997.38
2022-11-28T07:59:17.049Z,99998.41
2022-11-28T08:01:45.121Z,99995.88
2022-11-28T08:04:13.623Z,99998.50
2022-11-28T08:06:42.638Z,99997.28
2022-11-28T08:09:12.347Z,100006.34
2022-11-28T08:11:41.617Z,100002.63
2022-11-28T08:14:09.742Z,100013.47
2022-11-28T08:16:41.482Z,100009.66
2022-11-28T08:19:09.924Z,100010.78
2022-11-28T08:21:38.127Z,100005.09
2022-11-28T08:24:08.283Z,100011.78
2022-11-28T08:26:37.654Z,100014.09
2022-11-28T08:29:05.737Z,100008.75
2022-11-28T08:31:36.582Z,100014.38
2022-11-28T08:34:08.028Z,100011.91
2022-11-28T08:36:36.138Z,100013.75
2022-11-28T08:41:57.850Z,100021.66
2022-11-28T08:44:27.578Z,100008.94
2022-11-28T08:46:56.306Z,100020.41
2022-11-28T08:49:24.416Z,100018.38
2022-11-28T08:51:52.948Z,100015.16
2022-11-28T08:54:21.329Z,100028.13
2022-11-28T08:56:49.329Z,100019.25
2022-11-28T08:59:17.697Z,100020.03
2022-11-28T09:01:45.918Z,100018.53
2022-11-28T09:04:14.176Z,100016.31
2022-11-28T09:06:42.736Z,100019.59
2022-11-28T09:09:10.920Z,100018.16
2022-11-28T09:11:39.127Z,100010.88
2022-11-28T09:14:07.907Z,100009.22
2022-11-28T09:16:36.057Z,100011.31
2022-11-28T09:19:04.396Z,100000.44
2022-11-28T09:21:32.866Z,100012.28
2022-11-28T09:24:01.070Z,100011.31
2022-11-28T09:26:30.347Z,100011.78
2022-11-28T09:28:58.699Z,100007.69
2022-11-28T09:31:27.201Z,100004.09
2022-11-28T09:33:55.479Z,100005.69
2022-11-28T09:36:24.910Z,100006.63
2022-11-28T09:38:53.056Z,100000.50
2022-11-28T09:41:41.868Z,99990.75
2022-11-28T09:44:19.372Z,99991.19
2022-11-28T09:46:48.990Z,99974.12
2022-11-28T09:49:59.028Z,99978.03
2022-11-28T09:53:01.216Z,99976.44
2022-11-28T09:55:37.085Z,99967.16
2022-11-28T09:58:20.138Z,99964.81
2022-11-28T10:00:56.167Z,99964.41
2022-11-28T10:03:50.493Z,99949.66
2022-11-28T10:06:28.511Z,99955.84
2022-11-28T10:09:14.869Z,99951.56
2022-11-28T10:12:10.647Z,99953.56
2022-11-28T10:14:51.318Z,99954.34
2022-11-28T10:17:33.977Z,99953.16
2022-11-28T10:20:17.641Z,99952.03
2022-11-28T10:23:28.947Z,99950.34
2022-11-28T10:25:58.009Z,99948.59
2022-11-28T10:28:35.670Z,99947.59
2022-11-28T10:31:19.854Z,99949.50
2022-11-28T10:33:53.087Z,99945.06
2022-11-28T10:36:26.679Z,99937.50
2022-11-28T10:38:54.753Z,99932.31
2022-11-28T10:41:29.127Z,99928.72
2022-11-28T10:44:03.010Z,99928.50
2022-11-28T10:46:57.868Z,99920.31
2022-11-28T10:50:04.719Z,99919.44
2022-11-28T10:52:45.539Z,99919.88
2022-11-28T10:55:22.747Z,99909.13
2022-11-28T10:57:51.022Z,99907.16
2022-11-28T11:00:20.043Z,99904.75
2022-11-28T11:02:51.829Z,99904.72
2022-11-28T11:05:22.638Z,99909.31
2022-11-28T11:08:03.761Z,99898.50
2022-11-28T11:10:32.173Z,99898.59
2022-11-28T11:13:00.456Z,99899.47
2022-11-28T11:15:30.168Z,99901.94
2022-11-28T11:18:03.388Z,99914.88
2022-11-28T11:20:40.141Z,99908.41
2022-11-28T11:23:16.302Z,99907.94
2022-11-28T11:25:55.034Z,99906.81
2022-11-28T11:28:33.101Z,99902.41
2022-11-28T11:31:05.843Z,99908.31
2022-11-28T11:33:36.637Z,99899.59
2022-11-28T11:36:06.366Z,99898.59
2022-11-28T11:38:38.044Z,99899.41
2022-11-28T11:41:29.909Z,99893.16
2022-11-28T11:44:36.138Z,99891.63
2022-11-28T11:47:09.352Z,99889.44
2022-11-28T11:49:39.000Z,99895.59
2022-11-28T11:52:13.417Z,99887.63
2022-11-28T11:54:47.727Z,99891.09
2022-11-28T11:57:33.839Z,99894.72
2022-11-28T12:00:16.205Z,99886.09
2022-11-28T12:02:48.195Z,99881.97
2022-11-28T12:05:18.245Z,99872.03
2022-11-28T12:07:51.100Z,99876.56
2022-11-28T12:10:22.178Z,99869.16
2022-11-28T12:12:50.917Z,99872.56
2022-11-28T12:15:46.569Z,99874.75
2022-11-28T12:19:00.620Z,99867.03
2022-11-28T12:22:19.966Z,99863.31
2022-11-28T12:25:06.916Z,99854.75
2022-11-28T12:28:03.892Z,99853.31
2022-11-28T12:30:33.815Z,99846.41
2022-11-28T12:33:07.602Z,99851.59
2022-11-28T12:36:03.008Z,99848.50
2022-11-28T12:38:40.468Z,99848.37
2022-11-28T12:42:03.134Z,99840.44
2022-11-28T12:44:58.822Z,99846.38
2022-11-28T12:47:47.706Z,99846.25
2022-11-28T12:50:27.058Z,99849.28
2022-11-28T12:53:21.990Z,99843.88
2022-11-28T12:56:14.198Z,99841.25
2022-11-28T12:58:57.659Z,99830.50
2022-11-28T13:01:45.235Z,99834.19
2022-11-28T13:04:42.398Z,99833.03
2022-11-28T13:07:48.206Z,99831.63
2022-11-28T13:10:34.893Z,99828.13
2022-11-28T13:13:20.248Z,99832.69
2022-11-28T13:16:16.305Z,99833.19
2022-11-28T13:19:00.411Z,99826.03
2022-11-28T13:21:52.778Z,99828.06
2022-11-28T13:24:32.847Z,99826.44
2022-11-28T13:27:34.219Z,99826.44
2022-11-28T13:30:21.358Z,99823.97
2022-11-28T13:33:00.479Z,99825.37
2022-11-28T13:35:29.006Z,99820.75
2022-11-28T13:42:01.190Z,99829.81
2022-11-28T13:44:24.292Z,99821.28
2022-11-28T13:46:52.359Z,99822.22
2022-11-28T13:49:26.037Z,99817.19
2022-11-28T13:52:18.948Z,99815.28
2022-11-28T13:54:54.737Z,99813.44
2022-11-28T13:57:30.359Z,99813.53
2022-11-28T14:00:04.735Z,99813.97
2022-11-28T14:02:45.969Z,99808.69
2022-11-28T14:05:33.228Z,99808.53
2022-11-28T14:08:01.711Z,99816.09
2022-11-28T14:10:48.737Z,99811.09
2022-11-28T14:13:44.238Z,99810.28
2022-11-28T14:16:34.334Z,99805.19
2022-11-28T14:19:40.132Z,99815.88
2022-11-28T14:22:25.912Z,99805.25
2022-11-28T14:25:28.126Z,99804.16
2022-11-28T14:28:01.768Z,99804.75
2022-11-28T14:30:37.811Z,99807.56
2022-11-28T14:33:26.647Z,99803.09
2022-11-28T14:35:54.632Z,99802.59
2022-11-28T14:38:34.009Z,99811.03
2022-11-28T14:41:11.889Z,99804.47
2022-11-28T14:43:47.626Z,99798.44
2022-11-28T14:46:15.652Z,99805.31
2022-11-28T14:48:59.602Z,99810.78
2022-11-28T14:52:00.027Z,99803.00
2022-11-28T14:54:43.654Z,99802.97
2022-11-28T14:57:23.175Z,99798.66
2022-11-28T14:59:53.073Z,99796.13
2022-11-28T15:02:27.506Z,99796.72
2022-11-28T15:05:07.827Z,99805.91
2022-11-28T15:07:49.736Z,99802.81
2022-11-28T15:10:31.669Z,99800.69
2022-11-28T15:13:20.917Z,99807.31
2022-11-28T15:15:50.320Z,99807.78
2022-11-28T15:18:20.358Z,99804.47
2022-11-28T15:20:54.166Z,99809.09
2022-11-28T15:23:30.558Z,99805.56
2022-11-28T15:26:00.719Z,99800.03
2022-11-28T15:28:32.649Z,99806.03
2022-11-28T15:31:02.484Z,99801.38
2022-11-28T15:33:32.518Z,99801.56
2022-11-28T15:36:10.937Z,99808.34
2022-11-28T15:38:42.929Z,99807.72
2022-11-28T15:41:11.391Z,99806.84
2022-11-28T15:43:43.926Z,99817.13
2022-11-28T15:46:20.825Z,99819.47
2022-11-28T15:48:52.887Z,99820.31
2022-11-28T15:51:32.952Z,99816.31
2022-11-28T15:54:05.300Z,99820.88
2022-11-28T15:56:35.132Z,99814.03
2022-11-28T15:59:03.809Z,99818.37
2022-11-28T16:01:32.277Z,99825.44
2022-11-28T16:04:06.976Z,99830.28
2022-11-28T16:06:37.556Z,99825.28
2022-11-28T16:09:18.339Z,99824.28
2022-11-28T16:11:49.098Z,99829.22
2022-11-28T16:14:36.856Z,99824.84
2022-11-28T16:17:13.859Z,99830.84
2022-11-28T16:19:44.609Z,99823.16
2022-11-28T16:22:19.246Z,99823.16
2022-11-28T16:24:50.527Z,99824.84
2022-11-28T16:27:40.144Z,99831.13
2022-11-28T16:30:32.907Z,99831.13
2022-11-28T16:33:01.571Z,99822.75
2022-11-28T16:35:39.158Z,99821.78
2022-11-28T16:38:23.988Z,99824.09
2022-11-28T16:40:59.755Z,99823.13
2022-11-28T16:43:39.415Z,99818.72
2022-11-28T16:46:15.954Z,99824.81
2022-11-28T16:48:55.107Z,99824.91
2022-11-28T16:51:30.238Z,99826.66
2022-11-28T16:53:59.856Z,99828.97
2022-11-28T16:56:31.537Z,99828.53
2022-11-28T16:59:24.199Z,99826.91
2022-11-28T17:01:53.790Z,99837.66
2022-11-28T17:04:22.297Z,99832.50
2022-11-28T17:06:51.660Z,99835.38
2022-11-28T17:09:21.380Z,99836.25
2022-11-28T17:12:15.486Z,99829.03
2022-11-28T17:14:44.540Z,99834.88
2022-11-28T17:17:14.217Z,99829.81
2022-11-28T17:19:42.651Z,99830.47
2022-11-28T17:22:14.346Z,99828.78
2022-11-28T17:24:42.848Z,99822.97
2022-11-28T17:27:15.806Z,99825.66
2022-11-28T17:29:44.458Z,99830.63
2022-11-28T17:32:14.196Z,99834.19
2022-11-28T17:34:42.809Z,99826.47
2022-11-28T17:37:10.998Z,99829.38
2022-11-28T17:39:39.494Z,99827.56
2022-11-28T17:42:10.179Z,99832.84
2022-11-28T17:44:39.306Z,99833.28
2022-11-28T17:47:07.678Z,99830.12
2022-11-28T17:49:35.744Z,99834.53
2022-11-28T17:52:04.016Z,99834.72
2022-11-28T17:54:33.307Z,99841.34
2022-11-28T17:57:01.459Z,99834.59
2022-11-28T17:59:29.572Z,99844.41
2022-11-28T18:01:58.436Z,99834.78
2022-11-28T18:04:26.796Z,99837.19
2022-11-28T18:06:55.085Z,99832.59
2022-11-28T18:09:23.190Z,99836.06
2022-11-28T18:11:51.960Z,99843.28
2022-11-28T18:14:20.401Z,99846.78
2022-11-28T18:16:48.710Z,99842.06
2022-11-28T18:19:17.279Z,99843.09
2022-11-28T18:21:45.289Z,99838.47
2022-11-28T18:24:13.794Z,99843.41
2022-11-28T18:26:42.765Z,99837.62
2022-11-28T18:29:11.017Z,99844.25
2022-11-28T18:31:39.180Z,99840.53
2022-11-28T18:34:09.917Z,99844.22
2022-11-28T18:36:39.327Z,99835.53
2022-11-28T18:39:09.596Z,99838.19
2022-11-28T18:41:37.872Z,99846.97
2022-11-28T18:44:06.709Z,99848.19
2022-11-28T18:46:35.649Z,99853.34
2022-11-28T18:49:03.869Z,99848.31
2022-11-28T18:51:34.607Z,99843.94
2022-11-28T18:54:04.924Z,99831.94
2022-11-28T18:56:33.797Z,99834.53
2022-11-28T18:59:01.865Z,99834.06
2022-11-28T19:01:32.653Z,99836.28
2022-11-28T19:04:07.622Z,99833.50
2022-11-28T19:06:38.037Z,99828.34
2022-11-28T19:09:09.567Z,99835.75
2022-11-28T19:11:38.767Z,99837.06
2022-11-28T19:14:08.693Z,99836.47
2022-11-28T19:16:37.859Z,99829.12
2022-11-28T19:19:06.765Z,99840.72
2022-11-28T19:21:35.897Z,99835.13
2022-11-28T19:24:04.389Z,99842.34
2022-11-28T19:26:34.310Z,99836.66
2022-11-28T19:29:02.749Z,99843.50
2022-11-28T19:31:32.835Z,99843.47
2022-11-28T19:34:12.888Z,99838.69
2022-11-28T19:36:46.890Z,99840.41
2022-11-28T19:39:24.337Z,99841.31
2022-11-28T19:41:53.676Z,99845.34
2022-11-28T19:44:24.293Z,99852.81
2022-11-28T19:46:53.123Z,99851.94
2022-11-28T19:49:23.107Z,99845.81
2022-11-28T19:51:51.707Z,99843.59
2022-11-28T19:54:20.010Z,99848.56
2022-11-28T19:56:49.414Z,99848.16
2022-11-28T19:59:18.035Z,99850.25
2022-11-28T20:01:49.175Z,99842.91
2022-11-28T20:04:17.638Z,99849.34
2022-11-28T20:06:45.716Z,99841.84
2022-11-28T20:09:17.046Z,99845.81
2022-11-28T20:11:47.857Z,99840.75
2022-11-28T20:14:18.556Z,99835.22
2022-11-28T20:16:47.470Z,99837.06
2022-11-28T20:19:16.328Z,99839.78
2022-11-28T20:21:44.885Z,99839.09
2022-11-28T20:24:13.327Z,99847.25
2022-11-28T20:26:44.001Z,99841.25
2022-11-28T20:29:16.068Z,99840.44
2022-11-28T20:31:47.852Z,99846.88
2022-11-28T20:34:17.617Z,99848.78
2022-11-28T20:36:46.577Z,99843.16
2022-11-28T20:39:14.637Z,99845.06
2022-11-28T20:41:42.619Z,99843.47
2022-11-28T20:44:12.283Z,99850.13
2022-11-28T20:46:40.239Z,99853.06
2022-11-28T20:49:08.277Z,99849.31
2022-11-28T20:51:36.649Z,99856.53
2022-11-28T20:54:06.068Z,99846.41
2022-11-28T20:57:05.208Z,99838.69
2022-11-28T20:59:27.967Z,99839.19
2022-11-28T21:01:56.015Z,99847.75
2022-11-28T21:04:24.216Z,99840.50
2022-11-28T21:06:52.645Z,99842.25
2022-11-28T21:09:20.853Z,99847.84
2022-11-28T21:11:58.484Z,99852.44
2022-11-28T21:14:29.111Z,99853.56
2022-11-28T21:16:58.503Z,99856.56
2022-11-28T21:19:26.557Z,99855.53
2022-11-28T21:21:54.897Z,99852.34
2022-11-28T21:24:22.891Z,99856.03
2022-11-28T21:26:54.056Z,99852.09
2022-11-28T21:29:24.043Z,99851.88
2022-11-28T21:31:53.009Z,99858.81
2022-11-28T21:34:22.607Z,99848.44
2022-11-28T21:36:51.124Z,99858.78
2022-11-28T21:39:20.478Z,99851.91
2022-11-28T21:41:48.669Z,99847.19
2022-11-28T21:44:17.049Z,99847.63
2022-11-28T21:46:45.428Z,99844.84
2022-11-28T21:49:13.795Z,99852.44
2022-11-28T21:51:42.183Z,99860.69
2022-11-28T21:54:11.116Z,99846.78
2022-11-28T21:56:39.540Z,99859.00
2022-11-28T21:59:08.270Z,99849.44
2022-11-28T22:01:36.484Z,99849.16
2022-11-28T22:04:05.587Z,99851.97
2022-11-28T22:06:34.020Z,99856.19
2022-11-28T22:09:08.646Z,99855.50
2022-11-28T22:11:39.151Z,99846.28
2022-11-28T22:14:07.437Z,99841.44
2022-11-28T22:16:36.177Z,99844.50
2022-11-28T22:19:04.897Z,99852.25
2022-11-28T22:24:21.941Z,99849.03
2022-11-28T22:26:50.057Z,99845.19
2022-11-28T22:29:18.777Z,99852.69
2022-11-28T22:31:47.397Z,99850.34
2022-11-28T22:34:15.498Z,99842.56
2022-11-28T22:36:43.928Z,99844.00
2022-11-28T22:39:12.596Z,99842.34
2022-11-28T22:41:40.719Z,99836.59
2022-11-28T22:44:10.503Z,99840.75
2022-11-28T22:46:39.191Z,99836.31
2022-11-28T22:49:09.765Z,99834.34
2022-11-28T22:51:39.539Z,99838.19
2022-11-28T22:54:12.048Z,99840.94
2022-11-28T22:56:41.036Z,99842.00
2022-11-28T22:59:14.480Z,99844.59
2022-11-28T23:01:43.867Z,99839.66
2022-11-28T23:04:12.198Z,99846.16
2022-11-28T23:06:40.804Z,99849.56
2022-11-28T23:09:09.995Z,99845.88
2022-11-28T23:11:39.663Z,99842.09
2022-11-28T23:14:10.248Z,99845.62
2022-11-28T23:16:40.714Z,99847.34
2022-11-28T23:19:12.787Z,99845.25
2022-11-28T23:21:43.448Z,99849.34
2022-11-28T23:24:17.226Z,99846.44
2022-11-28T23:26:45.850Z,99841.06
2022-11-28T23:29:14.788Z,99845.44
2022-11-28T23:31:43.843Z,99843.19
2022-11-28T23:34:12.567Z,99847.56
2022-11-28T23:36:45.988Z,99852.25
2022-11-28T23:39:22.405Z,99848.22
2022-11-28T23:41:50.514Z,99847.81
2022-11-28T23:44:19.857Z,99848.25
2022-11-28T23:46:48.531Z,99844.16
2022-11-28T23:49:17.048Z,99829.94
2022-11-28T23:51:45.068Z,99826.19
2022-11-28T23:54:13.199Z,99830.94
2022-11-28T23:56:42.241Z,99828.09
2022-11-28T23:59:11.808Z,99824.00
